Foxridge, Maryland
Current Conditions -  °F | °C
As of 3:54 PM on Friday 31 Oct 2014 (Local Time) from KBWI Reporting Station
Broken Clouds Broken Clouds  
Wind Chill: 55°   Ceiling: 5500
Heat Index: 55°   Visibility: 10mi
Dew Point: 32°   Wind: 5mph
Humidity: 42%   Direction: 30°NNE
Pressure: 29.87"   Gusts: NA
Location:  39.3744°N, 76.8156°W
Report Text: KBWI 311954Z 03004KT 10SM FEW030 BKN055 BKN190 13/00 A2987 RMK AO2 SLP114 T01280000
Loading
Personal Weather Stations






























Interactive Weather Map
Tropical Storm Tracking
New forecast layout! Learn more

10-Day Weather Forecast

Advertisements
Track Severe Weather on mobile